Time;durP1;ratioP1;P1;durP2;ratioP2;P2;SDS_P1;SDS_P2;PMS_P1;PMS_P2;Temp;Humidity;BMP_temperature;BMP_pressure;BME280_temperature;BME280_humidity;BME280_pressure;Samples;Min_cycle;Max_cycle;Signal;HPM_P1;HPM_P2
2021/08/31 00:00:20;;;;;;;7.55;4.85;;;;;;;15.72;79.79;96895.09;4993179;28;20508;-81
2021/08/31 00:02:48;;;;;;;5.47;4.22;;;;;;;15.72;79.98;96895.91;4993035;28;20065;-81
2021/08/31 00:05:17;;;;;;;7.20;4.85;;;;;;;15.71;79.86;96898.72;4992835;28;20046;-81
2021/08/31 00:07:44;;;;;;;6.50;4.50;;;;;;;15.72;80.51;96903.81;4993150;28;20047;-81
2021/08/31 00:10:13;;;;;;;6.13;4.82;;;;;;;15.73;80.64;96905.41;4957714;28;1034451;-80
2021/08/31 00:12:41;;;;;;;4.50;4.10;;;;;;;15.74;80.96;96906.19;4994033;28;20061;-80
2021/08/31 00:15:10;;;;;;;6.35;5.03;;;;;;;15.73;80.27;96912.50;4994009;28;20054;-81
2021/08/31 00:17:38;;;;;;;5.50;5.00;;;;;;;15.74;80.61;96907.03;4997485;28;20498;-81
2021/08/31 00:20:08;;;;;;;5.35;4.15;;;;;;;15.75;80.78;96913.09;4997099;28;20046;-81
2021/08/31 00:22:37;;;;;;;4.93;4.43;;;;;;;15.77;80.94;96913.69;4997330;28;20054;-81
2021/08/31 00:25:06;;;;;;;6.53;5.07;;;;;;;15.78;81.26;96913.47;4997860;28;20058;-81
2021/08/31 00:27:33;;;;;;;5.13;4.47;;;;;;;15.79;80.90;96914.31;4997490;28;20410;-81
2021/08/31 00:30:01;;;;;;;5.38;4.88;;;;;;;15.79;81.01;96914.31;4997019;28;20054;-80
2021/08/31 00:32:28;;;;;;;5.40;4.85;;;;;;;15.77;80.38;96918.97;4997233;28;20050;-81
2021/08/31 00:34:56;;;;;;;5.38;4.65;;;;;;;15.77;81.10;96921.59;4997166;28;20433;-81
2021/08/31 00:37:23;;;;;;;6.35;5.03;;;;;;;15.76;80.53;96920.75;4997090;28;20058;-81
2021/08/31 00:39:52;;;;;;;4.75;4.25;;;;;;;15.76;81.20;96923.38;4997031;28;20518;-81
2021/08/31 00:42:20;;;;;;;7.20;5.13;;;;;;;15.77;81.31;96921.59;4997132;28;20062;-81
2021/08/31 00:44:48;;;;;;;5.53;5.03;;;;;;;15.76;81.16;96920.75;4997076;28;20050;-80
2021/08/31 00:47:15;;;;;;;5.50;5.00;;;;;;;15.78;81.12;96917.94;4996874;28;20502;-81
2021/08/31 00:49:43;;;;;;;6.43;4.95;;;;;;;15.78;80.68;96917.94;4997008;28;20473;-81
2021/08/31 00:52:11;;;;;;;4.95;4.55;;;;;;;15.79;80.85;96922.19;4996971;28;20054;-81
2021/08/31 00:54:41;;;;;;;6.57;4.95;;;;;;;15.79;81.00;96920.38;4996773;28;20246;-81
2021/08/31 00:57:09;;;;;;;5.63;4.95;;;;;;;15.79;80.99;96924.81;4997200;28;20050;-81
2021/08/31 00:59:37;;;;;;;6.45;5.53;;;;;;;15.79;81.24;96919.56;4996731;28;20545;-81
2021/08/31 01:02:05;;;;;;;5.25;4.75;;;;;;;15.79;80.92;96922.19;4996372;28;20053;-81
2021/08/31 01:04:33;;;;;;;7.43;5.43;;;;;;;15.79;81.05;96924.81;4996882;28;20055;-81
2021/08/31 01:07:01;;;;;;;6.13;5.20;;;;;;;15.78;81.35;96933.72;4997114;28;20046;-81
2021/08/31 01:09:29;;;;;;;6.25;5.45;;;;;;;15.77;80.70;96935.53;4996672;28;20069;-81
2021/08/31 01:11:57;;;;;;;6.10;5.20;;;;;;;15.74;80.40;96928.06;4996830;28;20050;-81
2021/08/31 01:14:27;;;;;;;6.53;4.65;;;;;;;15.73;80.52;96929.06;4996514;28;20435;-81
2021/08/31 01:16:55;;;;;;;6.35;5.00;;;;;;;15.74;80.37;96924.63;4996514;28;20065;-81
2021/08/31 01:19:30;;;;;;;6.53;4.85;;;;;;;15.73;80.34;96929.06;4996151;28;20066;-81
2021/08/31 01:21:59;;;;;;;6.93;5.45;;;;;;;15.70;79.63;96928.63;4996443;28;20507;-81
2021/08/31 01:24:27;;;;;;;6.32;5.25;;;;;;;15.70;80.38;96931.25;4996279;28;20054;-81
2021/08/31 01:26:57;;;;;;;9.27;5.38;;;;;;;15.71;80.61;96927.63;4995775;28;20491;-81
2021/08/31 01:29:25;;;;;;;6.63;5.57;;;;;;;15.72;81.20;96929.28;4996096;28;20050;-81
2021/08/31 01:31:53;;;;;;;6.25;5.15;;;;;;;15.72;81.00;96930.09;4996214;28;20090;-81
2021/08/31 01:34:20;;;;;;;6.47;5.50;;;;;;;15.73;81.35;96933.53;4996089;28;20046;-81
2021/08/31 01:36:48;;;;;;;7.10;5.20;;;;;;;15.73;80.91;96930.91;4996732;28;20058;-81
2021/08/31 01:39:16;;;;;;;6.10;4.85;;;;;;;15.72;81.37;96935.34;4995837;28;20050;-81
2021/08/31 01:41:43;;;;;;;7.22;5.55;;;;;;;15.72;80.88;96937.16;4995495;28;20077;-81
2021/08/31 01:44:12;;;;;;;7.07;5.18;;;;;;;15.70;80.42;96939.16;4995735;28;20065;-81
2021/08/31 01:46:40;;;;;;;5.63;5.10;;;;;;;15.70;80.75;96942.63;4995731;28;20058;-81
2021/08/31 01:49:07;;;;;;;5.28;4.75;;;;;;;15.70;80.85;96944.41;4995541;28;20054;-81
2021/08/31 01:51:35;;;;;;;5.55;5.05;;;;;;;15.70;80.85;96934.72;4995694;28;20054;-81
2021/08/31 01:54:03;;;;;;;6.07;5.07;;;;;;;15.70;80.63;96936.53;4995468;28;20055;-81
2021/08/31 01:56:30;;;;;;;5.10;4.60;;;;;;;15.70;80.62;96936.53;4995398;28;20046;-81
2021/08/31 01:58:58;;;;;;;6.88;5.53;;;;;;;15.66;80.56;96931.69;4995404;28;20059;-81
2021/08/31 02:01:27;;;;;;;5.57;5.07;;;;;;;15.66;81.04;96938.78;4995305;28;20057;-81
2021/08/31 02:03:55;;;;;;;6.40;4.85;;;;;;;15.67;80.89;96943.00;4994986;28;20054;-81
2021/08/31 02:06:23;;;;;;;5.25;4.68;;;;;;;15.68;81.51;96936.75;4995436;28;20053;-81
2021/08/31 02:08:51;;;;;;;7.95;5.63;;;;;;;15.67;81.22;96945.63;4995335;28;20050;-80
2021/08/31 02:11:18;;;;;;;5.90;4.90;;;;;;;15.69;81.22;96945.44;4995285;28;20050;-81
2021/08/31 02:13:46;;;;;;;4.78;4.38;;;;;;;15.68;81.14;96947.28;4995522;28;20050;-81
2021/08/31 02:16:13;;;;;;;5.25;4.68;;;;;;;15.68;81.46;96938.56;4994974;28;20062;-81
2021/08/31 02:18:42;;;;;;;5.10;4.28;;;;;;;15.69;80.61;96945.44;4995168;28;20090;-81
2021/08/31 02:21:11;;;;;;;6.32;4.43;;;;;;;15.70;80.84;96944.41;4995046;28;20058;-81
2021/08/31 02:23:40;;;;;;;4.93;4.43;;;;;;;15.69;80.64;96940.19;4994821;28;20050;-80
2021/08/31 02:26:07;;;;;;;5.70;4.60;;;;;;;15.68;81.06;96944.63;4994911;28;20054;-80
2021/08/31 02:28:35;;;;;;;6.78;4.30;;;;;;;15.69;80.75;96940.19;4994981;28;20046;-81
2021/08/31 02:31:02;;;;;;;5.72;3.90;;;;;;;15.66;80.25;96942.22;4994821;28;20061;-81
2021/08/31 02:33:30;;;;;;;5.57;4.47;;;;;;;15.66;80.05;96944.84;5003085;28;20054;-81
2021/08/31 02:35:59;;;;;;;6.32;4.47;;;;;;;15.65;80.81;96945.88;5010409;28;20085;-81
2021/08/31 02:38:26;;;;;;;6.03;4.00;;;;;;;15.65;80.68;96945.88;5008688;28;20054;-81
2021/08/31 02:40:54;;;;;;;6.47;4.25;;;;;;;15.64;79.86;96944.22;4999989;28;20054;-81
2021/08/31 02:43:21;;;;;;;5.07;3.95;;;;;;;15.63;80.80;96947.88;4994746;28;20063;-81
2021/08/31 02:45:49;;;;;;;4.68;4.25;;;;;;;15.64;80.60;96941.59;4994755;28;20450;-81
2021/08/31 02:48:17;;;;;;;6.32;4.05;;;;;;;15.65;80.58;96948.50;4994707;28;20042;-81
2021/08/31 02:50:44;;;;;;;4.65;4.15;;;;;;;15.63;79.91;96947.88;4994749;28;20077;-81
2021/08/31 02:53:13;;;;;;;4.53;4.13;;;;;;;15.62;80.21;96942.81;4995025;28;20054;-81
2021/08/31 02:55:41;;;;;;;4.13;3.72;;;;;;;15.61;80.32;96936.75;4994492;28;20426;-81
2021/08/31 02:58:08;;;;;;;4.38;3.97;;;;;;;15.61;80.40;96941.19;4994718;28;20085;-81
2021/08/31 03:00:41;;;;;;;4.60;4.20;;;;;;;15.61;80.80;96944.66;4994472;28;20054;-81
2021/08/31 03:03:09;;;;;;;4.85;4.45;;;;;;;15.64;81.09;96938.97;4993931;28;20042;-81
2021/08/31 03:05:37;;;;;;;4.85;4.45;;;;;;;15.65;81.09;96939.78;4994265;28;20050;-81
2021/08/31 03:08:05;;;;;;;4.82;4.22;;;;;;;15.63;80.53;96942.63;4994618;28;20062;-81
2021/08/31 03:10:34;;;;;;;5.80;4.60;;;;;;;15.60;79.99;96943.03;4994544;28;20411;-81
2021/08/31 03:13:01;;;;;;;6.25;5.35;;;;;;;15.61;80.36;96951.72;4994365;28;20077;-81
2021/08/31 03:15:29;;;;;;;5.60;4.88;;;;;;;15.60;80.69;96948.28;4994233;28;20065;-81
2021/08/31 03:17:56;;;;;;;6.00;5.28;;;;;;;15.58;80.50;96945.03;4994353;28;20425;-81
2021/08/31 03:20:26;;;;;;;5.57;4.97;;;;;;;15.59;80.97;96956.38;4994180;28;20060;-81
2021/08/31 03:22:53;;;;;;;5.10;4.60;;;;;;;15.59;80.32;96951.94;4994507;28;20050;-81
2021/08/31 03:25:21;;;;;;;5.25;4.80;;;;;;;15.58;80.21;96952.94;4994427;28;20057;-81
2021/08/31 03:27:50;;;;;;;6.07;4.68;;;;;;;15.58;80.32;96955.56;4994348;28;20531;-81
2021/08/31 03:30:19;;;;;;;7.43;4.72;;;;;;;15.56;80.15;96954.97;4994020;28;20501;-81
2021/08/31 03:32:47;;;;;;;5.65;4.85;;;;;;;15.55;79.23;96950.72;4993950;28;20050;-81
2021/08/31 03:35:15;;;;;;;5.38;4.65;;;;;;;15.53;79.82;96954.56;4994158;28;20065;-81
2021/08/31 03:37:42;;;;;;;5.13;4.10;;;;;;;15.54;80.42;96959.63;4994097;28;20046;-81
2021/08/31 03:40:11;;;;;;;5.43;4.90;;;;;;;15.54;80.75;96964.88;4993778;28;20047;-81
2021/08/31 03:42:38;;;;;;;5.65;5.07;;;;;;;15.53;80.92;96965.91;4993617;28;20252;-81
2021/08/31 03:45:09;;;;;;;5.95;4.93;;;;;;;15.55;81.20;96974.38;4993632;28;20050;-81
2021/08/31 03:47:37;;;;;;;6.28;5.63;;;;;;;15.53;80.81;96971.16;4994022;28;20057;-80
2021/08/31 03:50:05;;;;;;;5.70;5.05;;;;;;;15.52;80.23;96972.16;4993885;28;20058;-81
2021/08/31 03:52:32;;;;;;;4.53;4.13;;;;;;;15.51;80.31;96975.81;4997514;28;20042;-81
2021/08/31 03:55:00;;;;;;;5.72;4.97;;;;;;;15.52;80.71;96977.41;4997724;28;20054;-81
2021/08/31 03:57:28;;;;;;;7.88;5.47;;;;;;;15.51;80.10;96975.81;4998027;28;20050;-81
2021/08/31 03:59:55;;;;;;;7.32;5.55;;;;;;;15.49;79.53;96977.81;4997546;28;20050;-80
2021/08/31 04:02:24;;;;;;;6.57;5.90;;;;;;;15.47;79.92;96982.47;4997614;28;20058;-81
2021/08/31 04:04:52;;;;;;;7.43;5.80;;;;;;;15.47;80.24;96985.09;4997628;28;20062;-81
2021/08/31 04:07:19;;;;;;;5.88;5.00;;;;;;;15.49;80.62;96983.09;4997250;28;20054;-81
2021/08/31 04:09:47;;;;;;;6.40;5.28;;;;;;;15.49;80.57;96980.47;4997447;28;20050;-81
2021/08/31 04:12:14;;;;;;;7.47;5.50;;;;;;;15.49;80.79;96993.59;4997132;28;20407;-81
2021/08/31 04:14:42;;;;;;;6.15;5.32;;;;;;;15.48;80.44;96992.00;4997281;28;20050;-81
2021/08/31 04:17:09;;;;;;;6.07;5.28;;;;;;;15.47;80.56;96995.63;4997411;28;20054;-81
2021/08/31 04:19:38;;;;;;;6.53;5.53;;;;;;;15.45;79.93;96998.44;4997728;28;20053;-81
2021/08/31 04:22:06;;;;;;;6.38;4.85;;;;;;;15.46;81.05;97001.91;4997261;28;20042;-81
2021/08/31 04:24:34;;;;;;;6.13;5.50;;;;;;;15.46;80.63;97004.53;4997336;28;20058;-81
2021/08/31 04:27:01;;;;;;;5.88;5.28;;;;;;;15.44;80.62;97001.28;4997477;28;20050;-81
2021/08/31 04:29:29;;;;;;;7.57;5.88;;;;;;;15.44;80.68;97002.09;4996949;28;20050;-81
2021/08/31 04:31:56;;;;;;;7.13;5.70;;;;;;;15.44;81.14;97007.34;4997308;28;20449;-81
2021/08/31 04:34:24;;;;;;;9.45;6.13;;;;;;;15.46;81.29;97009.78;4996724;28;20077;-81
2021/08/31 04:36:53;;;;;;;6.97;5.80;;;;;;;15.46;80.69;97017.69;4996632;28;20145;-81
2021/08/31 04:39:20;;;;;;;8.45;6.07;;;;;;;15.45;80.67;97008.97;4996984;28;20054;-80
2021/08/31 04:41:48;;;;;;;6.10;5.40;;;;;;;15.47;80.86;97016.66;4996727;28;20050;-81
2021/08/31 04:44:15;;;;;;;6.57;5.82;;;;;;;15.48;81.39;97022.72;4996667;28;20054;-81
2021/08/31 04:46:43;;;;;;;6.35;5.68;;;;;;;15.47;80.74;97016.66;4996854;28;20057;-81
2021/08/31 04:49:11;;;;;;;6.57;5.97;;;;;;;15.46;80.45;97015.06;4997053;28;20054;-81
2021/08/31 04:51:38;;;;;;;11.93;8.43;;;;;;;15.44;80.27;97024.97;4996639;28;20058;-81
2021/08/31 04:54:07;;;;;;;17.48;11.73;;;;;;;15.44;81.06;97024.97;4996645;28;20046;-81
2021/08/31 04:56:34;;;;;;;8.98;8.07;;;;;;;15.44;80.80;97022.34;4996432;28;20054;-80
2021/08/31 04:59:02;;;;;;;7.68;6.05;;;;;;;15.46;81.35;97030.81;4996820;28;20050;-81
2021/08/31 05:01:30;;;;;;;8.02;6.40;;;;;;;15.45;80.58;97029.19;4996274;28;20437;-81
2021/08/31 05:03:58;;;;;;;7.57;6.32;;;;;;;15.45;81.06;97029.19;4995323;28;20053;-81
2021/08/31 05:06:25;;;;;;;18.30;12.85;;;;;;;15.45;80.73;97026.56;4996035;28;20061;-81
2021/08/31 05:14:18;;;;;;;9.45;7.10;;;;;;;15.47;81.23;97032.44;5966044;23;20028;-80
2021/08/31 05:16:46;;;;;;;7.57;6.07;;;;;;;15.48;80.91;97030.59;5000220;28;20038;-81
2021/08/31 05:19:14;;;;;;;6.95;6.25;;;;;;;15.47;80.61;97026.38;5009079;28;20122;-80
2021/08/31 05:21:43;;;;;;;9.02;6.28;;;;;;;15.46;80.78;97025.56;5019340;28;20129;-80
2021/08/31 05:24:12;;;;;;;7.45;6.22;;;;;;;15.46;80.86;97038.72;5018686;28;20073;-81
2021/08/31 05:26:41;;;;;;;8.95;5.72;;;;;;;15.45;81.11;97034.44;5018372;28;20042;-81
2021/08/31 05:29:12;;;;;;;10.35;6.40;;;;;;;15.46;80.67;97036.09;5019128;28;20050;-81
2021/08/31 05:31:45;;;;;;;7.50;6.60;;;;;;;15.45;80.58;97034.44;5019033;28;20097;-80
2021/08/31 05:34:13;;;;;;;9.15;6.40;;;;;;;15.45;80.63;97034.44;5018944;28;20065;-80
2021/08/31 05:36:42;;;;;;;7.25;6.55;;;;;;;15.44;80.01;97038.09;5018944;28;20050;-80
2021/08/31 05:39:10;;;;;;;7.57;6.40;;;;;;;15.43;80.49;97039.91;5018615;28;20053;-80
2021/08/31 05:41:38;;;;;;;7.07;6.38;;;;;;;15.45;80.16;97039.72;5018767;28;20070;-80
2021/08/31 05:44:06;;;;;;;9.70;6.55;;;;;;;15.44;79.80;97043.34;5018507;28;20042;-81
2021/08/31 05:46:34;;;;;;;6.95;6.18;;;;;;;15.46;80.21;97054.50;5018948;28;20065;-81
2021/08/31 05:49:05;;;;;;;8.57;6.35;;;;;;;15.47;80.70;97057.91;5018783;28;20505;-80
2021/08/31 05:51:33;;;;;;;9.45;6.60;;;;;;;15.47;80.91;97058.72;5019128;28;20070;-81
2021/08/31 05:54:02;;;;;;;9.20;6.60;;;;;;;15.44;80.21;97061.75;5018398;28;20113;-80
2021/08/31 05:56:30;;;;;;;10.50;7.25;;;;;;;15.43;80.31;97063.56;5018320;28;20065;-80
2021/08/31 05:58:57;;;;;;;7.70;5.95;;;;;;;15.42;80.08;97061.16;5018513;28;20077;-81
2021/08/31 06:01:25;;;;;;;7.75;6.18;;;;;;;15.41;79.72;97064.78;5018214;28;20042;-80
2021/08/31 06:03:54;;;;;;;6.57;5.57;;;;;;;15.41;79.94;97064.78;5017810;28;20050;-81
2021/08/31 06:06:23;;;;;;;6.85;6.05;;;;;;;15.40;80.56;97066.59;5018514;28;20073;-80
2021/08/31 06:08:51;;;;;;;7.07;6.38;;;;;;;15.43;80.08;97068.81;5018435;28;20046;-80
2021/08/31 06:11:21;;;;;;;7.20;6.32;;;;;;;15.42;79.49;97077.72;5018418;28;20113;-80
2021/08/31 06:13:49;;;;;;;7.97;6.10;;;;;;;15.42;80.04;97082.97;5017878;28;20049;-80
2021/08/31 06:16:17;;;;;;;7.53;6.20;;;;;;;15.41;79.39;97077.91;5018622;28;20090;-80
2021/08/31 06:18:45;;;;;;;7.93;6.30;;;;;;;15.39;78.82;97075.50;5018041;28;20054;-80
2021/08/31 06:21:13;;;;;;;6.93;5.10;;;;;;;15.40;79.35;97085.00;5018207;28;20039;-81
2021/08/31 06:23:42;;;;;;;9.23;6.38;;;;;;;15.43;79.47;97081.97;5017510;28;20057;-81
2021/08/31 06:26:11;;;;;;;6.40;5.80;;;;;;;15.44;79.62;97086.22;5017966;28;20026;-80
2021/08/31 06:28:39;;;;;;;7.95;6.65;;;;;;;15.46;79.59;97078.16;5018298;28;20046;-80
2021/08/31 06:31:07;;;;;;;9.68;6.15;;;;;;;15.47;79.85;97082.38;5018424;28;20085;-80
2021/08/31 06:33:35;;;;;;;7.90;6.75;;;;;;;15.52;80.04;97087.03;5017915;28;20097;-80
2021/08/31 06:36:04;;;;;;;6.78;6.07;;;;;;;15.53;80.25;97093.94;5017564;28;20053;-82
2021/08/31 06:38:32;;;;;;;8.32;6.85;;;;;;;15.54;80.25;97093.69;5017324;28;20543;-81
2021/08/31 06:41:02;;;;;;;7.18;5.65;;;;;;;15.55;79.49;97097.16;5017471;28;20046;-80
2021/08/31 06:43:30;;;;;;;6.78;5.53;;;;;;;15.56;80.45;97093.50;5017206;28;20046;-80
2021/08/31 06:45:58;;;;;;;9.10;6.45;;;;;;;15.57;79.94;97088.06;5017108;28;20050;-80
2021/08/31 06:48:27;;;;;;;7.70;5.90;;;;;;;15.61;80.48;97091.06;5016555;28;20085;-81
2021/08/31 06:50:57;;;;;;;7.68;6.53;;;;;;;15.62;80.13;97098.78;5017078;28;20081;-80
2021/08/31 06:53:25;;;;;;;7.00;6.30;;;;;;;15.64;80.38;97094.13;5016857;28;20106;-80
2021/08/31 06:55:53;;;;;;;8.48;6.47;;;;;;;15.66;79.64;97088.69;5017284;28;20057;-81
2021/08/31 06:58:22;;;;;;;7.13;6.38;;;;;;;15.68;79.43;97091.09;5017143;28;20051;-80
2021/08/31 07:00:53;;;;;;;7.13;6.10;;;;;;;15.70;77.95;97091.69;5016569;28;20559;-81
2021/08/31 07:03:21;;;;;;;8.10;6.57;;;;;;;15.67;77.19;97090.28;5016644;28;20045;-80
2021/08/31 07:05:52;;;;;;;7.60;5.50;;;;;;;15.66;77.02;97099.19;5016634;28;20063;-81
2021/08/31 07:08:20;;;;;;;7.57;5.78;;;;;;;15.69;77.10;97103.25;5016811;28;20131;-81
2021/08/31 07:10:48;;;;;;;8.52;6.03;;;;;;;15.71;77.38;97106.47;5016938;28;20038;-81
2021/08/31 07:13:16;;;;;;;7.85;5.78;;;;;;;15.73;78.16;97104.50;5016892;28;20027;-80
2021/08/31 07:15:45;;;;;;;7.95;5.80;;;;;;;15.75;77.41;97105.91;5016434;28;20050;-80
2021/08/31 07:18:13;;;;;;;6.97;5.95;;;;;;;15.78;77.18;97107.31;5016204;28;20056;-80
2021/08/31 07:20:43;;;;;;;7.70;5.93;;;;;;;15.80;77.13;97100.84;5016150;28;20069;-80
2021/08/31 07:23:14;;;;;;;8.15;5.45;;;;;;;15.84;76.71;97106.50;5016843;28;20046;-80
2021/08/31 07:25:42;;;;;;;8.02;5.80;;;;;;;15.89;76.99;97101.44;5016004;28;20058;-80
2021/08/31 07:28:11;;;;;;;9.35;5.28;;;;;;;15.94;76.15;97109.56;5017082;28;20051;-81
2021/08/31 07:30:39;;;;;;;7.18;6.18;;;;;;;15.97;75.96;97114.41;5017285;28;20101;-80
2021/08/31 07:33:09;;;;;;;8.10;5.68;;;;;;;16.00;75.40;97119.25;5017035;28;20099;-82
2021/08/31 07:35:38;;;;;;;5.85;4.35;;;;;;;16.05;75.69;97124.72;5016650;28;20034;-80
2021/08/31 07:38:07;;;;;;;7.85;5.57;;;;;;;16.10;76.47;97125.94;5016672;28;20098;-80
2021/08/31 07:40:35;;;;;;;5.47;4.93;;;;;;;16.16;76.14;97125.94;5017475;28;20081;-80
2021/08/31 07:43:03;;;;;;;5.85;5.30;;;;;;;16.21;75.55;97133.22;5017457;28;20039;-81
2021/08/31 07:45:30;;;;;;;5.88;4.95;;;;;;;16.23;75.58;97131.19;5017088;28;20054;-80
2021/08/31 07:47:58;;;;;;;6.70;5.45;;;;;;;16.24;75.20;97125.69;5017408;28;20065;-80
2021/08/31 07:50:28;;;;;;;6.18;5.55;;;;;;;16.24;74.67;97138.06;5016849;28;20058;-81
2021/08/31 07:52:55;;;;;;;6.70;5.45;;;;;;;16.24;75.16;97138.06;5017336;28;20109;-80
2021/08/31 07:55:23;;;;;;;5.72;5.03;;;;;;;16.23;75.68;97137.25;5016624;28;20090;-82
2021/08/31 07:57:51;;;;;;;6.07;4.90;;;;;;;16.23;75.32;97139.88;5016996;28;20099;-80
2021/08/31 08:00:20;;;;;;;6.18;5.35;;;;;;;16.24;75.08;97144.13;5017022;28;20121;-81
2021/08/31 08:02:48;;;;;;;6.18;5.45;;;;;;;16.23;74.71;97147.78;5016969;28;20038;-80
2021/08/31 08:05:15;;;;;;;5.32;4.22;;;;;;;16.23;73.98;97146.97;5016821;28;20053;-81
2021/08/31 08:07:45;;;;;;;5.97;4.72;;;;;;;16.22;73.46;97140.91;5016841;28;20043;-81
2021/08/31 08:10:13;;;;;;;5.60;5.07;;;;;;;16.26;73.51;97143.94;5017181;28;20061;-81
2021/08/31 08:12:40;;;;;;;7.95;4.88;;;;;;;16.30;74.50;97142.50;5016804;28;20069;-81
2021/08/31 08:15:09;;;;;;;5.35;4.57;;;;;;;16.33;73.20;97147.34;5016691;28;20051;-80
2021/08/31 08:17:37;;;;;;;5.18;4.35;;;;;;;16.36;71.83;97152.22;5017099;28;20053;-80
2021/08/31 08:20:08;;;;;;;6.25;5.20;;;;;;;16.37;71.35;97155.66;5016904;28;20034;-80
2021/08/31 08:22:36;;;;;;;6.82;4.63;;;;;;;16.35;71.75;97155.84;5016784;28;20046;-80
2021/08/31 08:25:06;;;;;;;5.18;4.68;;;;;;;16.34;71.26;97164.78;5016290;28;20039;-80
2021/08/31 08:27:35;;;;;;;5.55;4.63;;;;;;;16.32;71.43;97156.28;5016503;28;20034;-81
2021/08/31 08:30:03;;;;;;;5.25;4.75;;;;;;;16.33;72.11;97167.63;5016359;28;20174;-80
2021/08/31 08:32:31;;;;;;;7.18;4.82;;;;;;;16.32;71.28;97164.19;5016388;28;20050;-80
2021/08/31 08:34:59;;;;;;;8.50;5.57;;;;;;;16.32;71.51;97168.63;5017450;28;20054;-80
2021/08/31 08:37:27;;;;;;;4.95;4.25;;;;;;;16.33;71.20;97171.03;5020142;28;20038;-80
2021/08/31 08:39:55;;;;;;;6.65;4.88;;;;;;;16.35;71.60;97166.38;5021461;28;20041;-81
2021/08/31 08:42:24;;;;;;;5.38;4.80;;;;;;;16.37;71.93;97169.63;5020414;28;20056;-80
2021/08/31 08:44:52;;;;;;;7.97;4.43;;;;;;;16.41;71.20;97165.56;5019908;28;20026;-81
2021/08/31 08:47:20;;;;;;;5.00;4.50;;;;;;;16.45;70.09;97169.41;5020275;28;20073;-80
2021/08/31 08:49:49;;;;;;;4.88;3.42;;;;;;;16.47;69.85;97171.88;5021028;28;20061;-80
2021/08/31 08:52:17;;;;;;;7.10;4.13;;;;;;;16.48;69.97;97166.38;5021374;28;20084;-81
2021/08/31 08:54:45;;;;;;;4.05;3.63;;;;;;;16.51;69.56;97170.44;5020595;28;20054;-80
2021/08/31 08:57:13;;;;;;;4.80;4.00;;;;;;;16.52;69.33;97171.25;5019907;28;20062;-80
2021/08/31 08:59:43;;;;;;;5.50;3.70;;;;;;;16.53;69.25;97175.47;5019358;28;20047;-80
2021/08/31 09:02:13;;;;;;;6.07;4.30;;;;;;;16.55;68.61;97181.34;5019654;28;20031;-81
2021/08/31 09:04:47;;;;;;;6.30;4.28;;;;;;;16.56;68.78;97183.00;5019621;28;20055;-80
2021/08/31 09:07:19;;;;;;;5.20;4.40;;;;;;;16.57;69.19;97184.59;5019415;28;20061;-80
2021/08/31 09:09:51;;;;;;;5.03;4.03;;;;;;;16.59;68.88;97190.47;5018863;28;20046;-80
2021/08/31 09:12:30;;;;;;;7.43;4.22;;;;;;;16.56;69.92;97194.31;5018706;28;20042;-80
2021/08/31 09:15:25;;;;;;;6.13;4.43;;;;;;;16.53;68.83;97196.56;5019534;28;20046;-81
2021/08/31 09:18:14;;;;;;;7.97;3.95;;;;;;;16.49;69.21;97196.16;5018593;28;20030;-81
2021/08/31 09:20:46;;;;;;;8.40;3.75;;;;;;;16.47;69.04;97200.81;5019235;28;20050;-80
2021/08/31 09:23:20;;;;;;;6.38;3.58;;;;;;;16.46;68.83;97205.28;5018036;28;20046;-81
2021/08/31 09:25:50;;;;;;;4.35;3.95;;;;;;;16.46;68.99;97199.19;5019522;28;20034;-81
2021/08/31 09:28:23;;;;;;;4.57;3.90;;;;;;;16.45;69.31;97214.19;5018836;28;20050;-81
2021/08/31 09:31:05;;;;;;;5.57;4.47;;;;;;;16.44;69.48;97199.41;5018793;28;20069;-81
2021/08/31 09:33:34;;;;;;;4.57;4.18;;;;;;;16.44;69.37;97209.94;5018684;28;20080;-80
2021/08/31 09:36:10;;;;;;;4.53;4.05;;;;;;;16.45;69.28;97218.66;5018831;28;20054;-81
2021/08/31 09:38:46;;;;;;;5.18;4.15;;;;;;;16.44;69.10;97211.75;5018452;28;20066;-81
2021/08/31 09:41:29;;;;;;;4.60;3.67;;;;;;;16.44;70.19;97223.13;5018635;28;20038;-80
2021/08/31 09:43:57;;;;;;;;;;;;;;;16.46;70.00;97218.47;5019021;28;20070;-81
2021/08/31 09:46:45;;;;;;;5.13;4.20;;;;;;;16.44;69.70;97227.56;5018137;28;19922;-81
2021/08/31 09:49:21;;;;;;;4.30;3.88;;;;;;;16.42;69.78;97219.88;5017432;28;20082;-81
2021/08/31 09:52:03;;;;;;;5.75;4.25;;;;;;;16.40;69.80;97218.47;5018910;28;20114;-80
2021/08/31 09:54:35;;;;;;;4.65;3.58;;;;;;;16.41;70.62;97222.69;5018638;28;20066;-81
2021/08/31 09:57:24;;;;;;;5.97;3.67;;;;;;;16.43;70.86;97221.47;5019887;28;20050;-80
2021/08/31 09:59:52;;;;;;;3.95;3.60;;;;;;;16.43;70.15;97221.47;5018931;28;20125;-80
2021/08/31 10:02:22;;;;;;;4.28;3.85;;;;;;;16.43;70.95;97225.94;5018356;28;20030;-80
2021/08/31 10:04:53;;;;;;;4.40;3.75;;;;;;;16.46;71.28;97233.44;5018411;28;20038;-80
2021/08/31 10:07:21;;;;;;;5.72;4.53;;;;;;;16.47;72.28;97227.16;5018039;28;20067;-81
2021/08/31 10:09:49;;;;;;;3.95;3.60;;;;;;;16.50;71.88;97225.94;5018312;28;20053;-80
2021/08/31 10:12:21;;;;;;;4.20;3.72;;;;;;;16.52;70.56;97234.44;5018220;28;20061;-81
2021/08/31 10:14:53;;;;;;;4.72;3.60;;;;;;;16.52;70.67;97232.63;5017014;28;20077;-80
2021/08/31 10:17:24;;;;;;;4.95;4.03;;;;;;;16.55;72.04;97232.22;5017440;28;20070;-80
2021/08/31 10:19:54;;;;;;;4.72;4.18;;;;;;;16.58;72.29;97233.63;5017672;28;20081;-80
2021/08/31 10:22:24;;;;;;;4.10;3.70;;;;;;;16.60;70.52;97237.69;5017342;28;20081;-80
2021/08/31 10:24:52;;;;;;;4.68;3.80;;;;;;;16.62;70.01;97229.59;5017408;28;20115;-81
2021/08/31 10:27:38;;;;;;;5.30;4.15;;;;;;;16.63;69.55;97226.72;5017237;28;20052;-80
2021/08/31 10:30:30;;;;;;;5.50;4.05;;;;;;;16.68;69.07;97226.09;5017557;28;20042;-81
2021/08/31 10:33:01;;;;;;;4.57;4.15;;;;;;;16.70;70.09;97229.34;5017043;28;20058;-81
2021/08/31 10:35:53;;;;;;;4.93;4.07;;;;;;;16.77;70.44;97237.25;5017213;28;20066;-80
2021/08/31 10:38:49;;;;;;;4.20;3.80;;;;;;;16.91;71.14;97248.63;5010500;28;20065;-81
2021/08/31 10:41:47;;;;;;;4.68;3.80;;;;;;;17.13;70.90;97236.78;5016371;28;20055;-81
2021/08/31 10:44:36;;;;;;;3.80;3.25;;;;;;;17.30;68.15;97237.94;5017756;28;20054;-81
2021/08/31 10:47:13;;;;;;;3.88;3.50;;;;;;;17.49;68.92;97230.97;5017669;28;20050;-79
2021/08/31 10:50:19;;;;;;;4.03;3.13;;;;;;;17.76;68.55;97230.84;5018082;28;20058;-82
2021/08/31 10:52:50;;;;;;;3.95;3.58;;;;;;;17.96;66.74;97229.94;5017532;28;20038;-81
2021/08/31 10:55:42;;;;;;;4.50;3.33;;;;;;;18.07;65.86;97232.69;5017883;28;20046;-80
2021/08/31 10:58:12;;;;;;;3.78;3.20;;;;;;;18.18;66.01;97238.31;5017699;28;20057;-80
2021/08/31 11:00:49;;;;;;;3.72;3.30;;;;;;;18.20;64.60;97231.81;5016942;28;20066;-80
2021/08/31 11:03:40;;;;;;;5.00;3.25;;;;;;;18.22;68.17;97236.88;5017869;28;20520;-80
2021/08/31 11:06:33;;;;;;;4.28;3.25;;;;;;;18.18;65.83;97238.31;5017769;28;20077;-79
2021/08/31 11:09:19;;;;;;;;;;;;;;;18.15;65.67;97246.66;5018408;28;20046;-80
2021/08/31 11:12:00;;;;;;;3.67;3.30;;;;;;;18.06;66.62;97244.28;5017555;28;19928;-81
2021/08/31 11:14:48;;;;;;;4.90;3.08;;;;;;;18.01;65.61;97244.09;5030241;23;20034;-80
2021/08/31 11:17:32;;;;;;;4.45;3.15;;;;;;;17.97;65.79;97244.75;5004206;28;20057;-79
2021/08/31 11:20:20;;;;;;;3.42;3.08;;;;;;;17.91;66.07;97241.94;5005660;28;20054;-80
2021/08/31 11:22:52;;;;;;;3.42;3.13;;;;;;;17.87;65.79;97248.66;5002240;28;20418;-79
2021/08/31 11:25:29;;;;;;;3.20;2.90;;;;;;;17.87;67.58;97250.50;5003608;28;20082;-83
2021/08/31 11:27:59;;;;;;;4.43;3.63;;;;;;;17.86;66.32;97252.34;5005506;28;20059;-79
2021/08/31 11:30:28;;;;;;;4.30;3.28;;;;;;;17.85;66.25;97249.91;5005822;28;20065;-81
2021/08/31 11:33:13;;;;;;;3.90;3.40;;;;;;;17.83;67.10;97254.59;5003857;28;20088;-81
2021/08/31 11:35:41;;;;;;;6.50;3.85;;;;;;;17.81;66.60;97249.47;5003461;28;20133;-80
2021/08/31 11:38:10;;;;;;;5.80;4.10;;;;;;;17.78;67.81;97254.38;5004340;28;20061;-79
2021/08/31 11:40:38;;;;;;;4.25;3.78;;;;;;;17.77;67.15;97256.19;5004416;28;20054;-81
2021/08/31 11:43:06;;;;;;;3.95;3.55;;;;;;;17.77;68.13;97253.56;5003683;28;20054;-79
2021/08/31 11:45:36;;;;;;;3.78;3.30;;;;;;;17.77;65.07;97253.56;5002873;28;20050;-80
2021/08/31 11:48:04;;;;;;;3.70;3.40;;;;;;;17.77;64.90;97252.75;5001671;28;20058;-79
2021/08/31 11:50:32;;;;;;;6.80;3.40;;;;;;;17.80;65.54;97257.59;5001688;28;20065;-79
2021/08/31 11:53:16;;;;;;;6.63;3.72;;;;;;;17.85;64.87;97255.19;5002301;28;20046;-80